sensor_id;sensor_type;location;lat;lon;timestamp;temperature;humidity
15676;DHT22;7938;47.666;9.434;2023-11-19T05:22:39;8.20;99.90
15676;DHT22;7938;47.666;9.434;2023-11-19T05:25:07;8.20;99.90
15676;DHT22;7938;47.666;9.434;2023-11-19T05:27:34;7.90;99.90
15676;DHT22;7938;47.666;9.434;2023-11-19T05:30:01;8.40;99.90
15676;DHT22;7938;47.666;9.434;2023-11-19T05:32:28;7.90;99.90
15676;DHT22;7938;47.666;9.434;2023-11-19T05:34:56;7.90;99.90
15676;DHT22;7938;47.666;9.434;2023-11-19T05:37:23;8.20;99.90
15676;DHT22;7938;47.666;9.434;2023-11-19T05:39:50;8.00;99.90
15676;DHT22;7938;47.666;9.434;2023-11-19T05:42:17;8.20;99.90
15676;DHT22;7938;47.666;9.434;2023-11-19T05:44:44;8.30;99.90
15676;DHT22;7938;47.666;9.434;2023-11-19T05:47:11;8.30;99.90
15676;DHT22;7938;47.666;9.434;2023-11-19T05:49:38;8.30;99.90
15676;DHT22;7938;47.666;9.434;2023-11-19T05:52:06;8.40;99.90
15676;DHT22;7938;47.666;9.434;2023-11-19T05:54:35;8.40;99.90
15676;DHT22;7938;47.666;9.434;2023-11-19T05:57:04;8.20;99.90
15676;DHT22;7938;47.666;9.434;2023-11-19T05:59:32;8.20;99.90
15676;DHT22;7938;47.666;9.434;2023-11-19T06:01:58;8.40;99.90
15676;DHT22;7938;47.666;9.434;2023-11-19T06:04:26;8.30;99.90
15676;DHT22;7938;47.666;9.434;2023-11-19T06:06:53;8.20;99.90
15676;DHT22;7938;47.666;9.434;2023-11-19T06:09:21;8.20;99.90
15676;DHT22;7938;47.666;9.434;2023-11-19T06:11:49;8.20;99.90
15676;DHT22;7938;47.666;9.434;2023-11-19T06:14:16;8.30;99.90
15676;DHT22;7938;47.666;9.434;2023-11-19T06:16:43;8.20;99.90
15676;DHT22;7938;47.666;9.434;2023-11-19T06:19:10;8.30;99.90
15676;DHT22;7938;47.666;9.434;2023-11-19T06:21:37;8.40;99.90
15676;DHT22;7938;47.666;9.434;2023-11-19T06:24:04;8.60;99.90
15676;DHT22;7938;47.666;9.434;2023-11-19T06:26:33;8.70;99.90
15676;DHT22;7938;47.666;9.434;2023-11-19T06:29:00;8.90;99.90
15676;DHT22;7938;47.666;9.434;2023-11-19T06:31:26;9.00;99.90
15676;DHT22;7938;47.666;9.434;2023-11-19T06:33:53;9.00;99.90
15676;DHT22;7938;47.666;9.434;2023-11-19T06:36:20;9.10;99.90
15676;DHT22;7938;47.666;9.434;2023-11-19T06:38:47;8.90;99.90
15676;DHT22;7938;47.666;9.434;2023-11-19T06:41:14;8.80;99.90
15676;DHT22;7938;47.666;9.434;2023-11-19T06:43:42;8.70;99.90
15676;DHT22;7938;47.666;9.434;2023-11-19T06:46:16;8.80;99.90
15676;DHT22;7938;47.666;9.434;2023-11-19T06:48:42;8.90;99.90
15676;DHT22;7938;47.666;9.434;2023-11-19T06:51:10;9.00;99.90
15676;DHT22;7938;47.666;9.434;2023-11-19T06:53:37;9.00;99.90
15676;DHT22;7938;47.666;9.434;2023-11-19T06:56:05;8.90;99.90
15676;DHT22;7938;47.666;9.434;2023-11-19T06:58:36;9.10;99.90
15676;DHT22;7938;47.666;9.434;2023-11-19T07:01:06;9.00;99.90
15676;DHT22;7938;47.666;9.434;2023-11-19T07:03:35;9.10;99.90
15676;DHT22;7938;47.666;9.434;2023-11-19T07:06:01;9.30;99.90
15676;DHT22;7938;47.666;9.434;2023-11-19T07:08:29;9.30;99.90
15676;DHT22;7938;47.666;9.434;2023-11-19T07:10:56;9.60;99.90
15676;DHT22;7938;47.666;9.434;2023-11-19T07:13:22;9.60;99.90
15676;DHT22;7938;47.666;9.434;2023-11-19T07:15:49;9.50;99.90
15676;DHT22;7938;47.666;9.434;2023-11-19T07:18:18;9.60;99.90
15676;DHT22;7938;47.666;9.434;2023-11-19T07:20:47;9.90;99.90
15676;DHT22;7938;47.666;9.434;2023-11-19T07:23:14;9.70;99.90
15676;DHT22;7938;47.666;9.434;2023-11-19T07:25:42;9.70;99.90
15676;DHT22;7938;47.666;9.434;2023-11-19T07:28:10;9.80;99.90
15676;DHT22;7938;47.666;9.434;2023-11-19T07:30:38;9.80;99.90
15676;DHT22;7938;47.666;9.434;2023-11-19T07:33:05;10.10;99.90
15676;DHT22;7938;47.666;9.434;2023-11-19T07:35:33;9.90;99.90
15676;DHT22;7938;47.666;9.434;2023-11-19T07:38:00;9.90;99.90
15676;DHT22;7938;47.666;9.434;2023-11-19T07:40:27;10.00;99.90
15676;DHT22;7938;47.666;9.434;2023-11-19T07:42:54;10.00;99.90
15676;DHT22;7938;47.666;9.434;2023-11-19T07:45:21;10.00;99.90
15676;DHT22;7938;47.666;9.434;2023-11-19T07:47:48;10.10;99.90
15676;DHT22;7938;47.666;9.434;2023-11-19T07:50:14;10.10;99.90
15676;DHT22;7938;47.666;9.434;2023-11-19T07:52:43;10.10;99.90
15676;DHT22;7938;47.666;9.434;2023-11-19T07:55:10;10.00;99.90
15676;DHT22;7938;47.666;9.434;2023-11-19T07:57:36;10.10;99.90
15676;DHT22;7938;47.666;9.434;2023-11-19T08:00:03;10.50;99.90
15676;DHT22;7938;47.666;9.434;2023-11-19T08:02:30;10.30;99.90
15676;DHT22;7938;47.666;9.434;2023-11-19T08:04:57;10.40;99.90
15676;DHT22;7938;47.666;9.434;2023-11-19T08:07:24;10.40;99.90
15676;DHT22;7938;47.666;9.434;2023-11-19T08:09:53;10.40;99.90
15676;DHT22;7938;47.666;9.434;2023-11-19T08:12:19;10.60;99.90
15676;DHT22;7938;47.666;9.434;2023-11-19T08:14:46;10.40;99.90
15676;DHT22;7938;47.666;9.434;2023-11-19T08:17:14;10.50;99.90
15676;DHT22;7938;47.666;9.434;2023-11-19T08:19:41;10.40;99.90
15676;DHT22;7938;47.666;9.434;2023-11-19T08:22:08;10.40;99.90
15676;DHT22;7938;47.666;9.434;2023-11-19T08:24:35;10.40;99.90
15676;DHT22;7938;47.666;9.434;2023-11-19T08:27:03;10.50;99.90
15676;DHT22;7938;47.666;9.434;2023-11-19T08:29:30;10.50;99.90
15676;DHT22;7938;47.666;9.434;2023-11-19T08:31:57;10.60;99.90
15676;DHT22;7938;47.666;9.434;2023-11-19T08:34:25;10.60;99.90
15676;DHT22;7938;47.666;9.434;2023-11-19T08:36:51;10.60;99.90
15676;DHT22;7938;47.666;9.434;2023-11-19T08:39:19;10.60;99.90
15676;DHT22;7938;47.666;9.434;2023-11-19T08:41:46;10.70;99.90
15676;DHT22;7938;47.666;9.434;2023-11-19T08:44:14;10.30;99.90
15676;DHT22;7938;47.666;9.434;2023-11-19T08:46:47;10.20;99.90
15676;DHT22;7938;47.666;9.434;2023-11-19T08:49:14;10.20;99.90
15676;DHT22;7938;47.666;9.434;2023-11-19T08:51:41;10.00;99.90
15676;DHT22;7938;47.666;9.434;2023-11-19T08:54:08;9.90;99.90
15676;DHT22;7938;47.666;9.434;2023-11-19T08:56:35;10.00;99.90
15676;DHT22;7938;47.666;9.434;2023-11-19T08:59:02;10.40;99.90
15676;DHT22;7938;47.666;9.434;2023-11-19T09:01:31;10.40;99.90
15676;DHT22;7938;47.666;9.434;2023-11-19T09:03:57;10.80;99.90
15676;DHT22;7938;47.666;9.434;2023-11-19T09:06:24;10.80;99.90
15676;DHT22;7938;47.666;9.434;2023-11-19T09:08:52;10.80;99.90
15676;DHT22;7938;47.666;9.434;2023-11-19T09:11:18;11.00;99.90
15676;DHT22;7938;47.666;9.434;2023-11-19T09:13:45;10.80;99.90
15676;DHT22;7938;47.666;9.434;2023-11-19T09:16:12;10.90;99.90
15676;DHT22;7938;47.666;9.434;2023-11-19T09:18:40;10.80;99.90
15676;DHT22;7938;47.666;9.434;2023-11-19T09:21:07;10.80;99.90
15676;DHT22;7938;47.666;9.434;2023-11-19T09:23:34;10.80;99.90
15676;DHT22;7938;47.666;9.434;2023-11-19T09:26:05;10.90;99.90
15676;DHT22;7938;47.666;9.434;2023-11-19T09:28:32;11.00;99.90
15676;DHT22;7938;47.666;9.434;2023-11-19T09:30:59;11.10;99.90
15676;DHT22;7938;47.666;9.434;2023-11-19T09:33:26;10.90;99.90
15676;DHT22;7938;47.666;9.434;2023-11-19T09:35:54;11.20;99.90
15676;DHT22;7938;47.666;9.434;2023-11-19T09:38:21;11.00;99.90
15676;DHT22;7938;47.666;9.434;2023-11-19T09:40:48;11.10;99.90
15676;DHT22;7938;47.666;9.434;2023-11-19T09:43:15;11.00;99.90
15676;DHT22;7938;47.666;9.434;2023-11-19T09:45:48;10.70;99.90
15676;DHT22;7938;47.666;9.434;2023-11-19T09:48:16;10.40;99.90
15676;DHT22;7938;47.666;9.434;2023-11-19T09:50:44;10.40;99.90
15676;DHT22;7938;47.666;9.434;2023-11-19T09:53:12;10.40;99.90
15676;DHT22;7938;47.666;9.434;2023-11-19T09:55:40;10.40;99.90
15676;DHT22;7938;47.666;9.434;2023-11-19T09:58:07;10.40;99.90
15676;DHT22;7938;47.666;9.434;2023-11-19T10:00:34;10.50;99.90
15676;DHT22;7938;47.666;9.434;2023-11-19T10:03:02;10.50;99.90
15676;DHT22;7938;47.666;9.434;2023-11-19T10:05:31;10.50;99.90
15676;DHT22;7938;47.666;9.434;2023-11-19T10:07:58;10.80;99.90
15676;DHT22;7938;47.666;9.434;2023-11-19T10:10:26;10.90;99.90
15676;DHT22;7938;47.666;9.434;2023-11-19T10:12:53;11.00;99.90
15676;DHT22;7938;47.666;9.434;2023-11-19T10:15:22;11.20;99.90
15676;DHT22;7938;47.666;9.434;2023-11-19T10:17:50;11.20;99.90
15676;DHT22;7938;47.666;9.434;2023-11-19T10:20:17;11.30;99.90
15676;DHT22;7938;47.666;9.434;2023-11-19T10:22:44;11.20;99.90
15676;DHT22;7938;47.666;9.434;2023-11-19T10:25:22;11.10;99.90
15676;DHT22;7938;47.666;9.434;2023-11-19T10:27:51;11.30;99.90
15676;DHT22;7938;47.666;9.434;2023-11-19T10:30:19;11.40;99.90
15676;DHT22;7938;47.666;9.434;2023-11-19T10:33:03;11.40;99.90
15676;DHT22;7938;47.666;9.434;2023-11-19T10:35:30;11.60;99.90
15676;DHT22;7938;47.666;9.434;2023-11-19T10:37:59;11.60;99.90
15676;DHT22;7938;47.666;9.434;2023-11-19T10:40:38;11.60;99.90
15676;DHT22;7938;47.666;9.434;2023-11-19T10:43:07;11.80;99.90
15676;DHT22;7938;47.666;9.434;2023-11-19T10:45:35;11.50;99.90
15676;DHT22;7938;47.666;9.434;2023-11-19T10:48:02;11.90;99.90
15676;DHT22;7938;47.666;9.434;2023-11-19T10:50:32;11.90;99.90
15676;DHT22;7938;47.666;9.434;2023-11-19T10:53:00;11.90;99.90
15676;DHT22;7938;47.666;9.434;2023-11-19T10:55:28;11.80;99.90
15676;DHT22;7938;47.666;9.434;2023-11-19T10:58:00;12.20;99.90
15676;DHT22;7938;47.666;9.434;2023-11-19T11:00:33;11.90;99.90
15676;DHT22;7938;47.666;9.434;2023-11-19T11:03:01;12.00;99.90
15676;DHT22;7938;47.666;9.434;2023-11-19T11:05:30;12.00;99.90
15676;DHT22;7938;47.666;9.434;2023-11-19T11:08:00;12.00;99.90
15676;DHT22;7938;47.666;9.434;2023-11-19T11:10:28;11.90;99.90
15676;DHT22;7938;47.666;9.434;2023-11-19T11:12:59;12.00;99.90
15676;DHT22;7938;47.666;9.434;2023-11-19T11:15:30;11.90;99.90
15676;DHT22;7938;47.666;9.434;2023-11-19T11:18:00;11.40;99.90
15676;DHT22;7938;47.666;9.434;2023-11-19T11:20:29;11.50;99.90
15676;DHT22;7938;47.666;9.434;2023-11-19T11:23:07;11.30;99.90
15676;DHT22;7938;47.666;9.434;2023-11-19T11:25:44;11.20;99.90
15676;DHT22;7938;47.666;9.434;2023-11-19T11:28:29;10.60;99.90
15676;DHT22;7938;47.666;9.434;2023-11-19T11:31:17;11.10;99.90
15676;DHT22;7938;47.666;9.434;2023-11-19T11:34:15;11.40;99.90
15676;DHT22;7938;47.666;9.434;2023-11-19T11:36:53;11.40;99.90
15676;DHT22;7938;47.666;9.434;2023-11-19T11:39:24;11.50;99.90
15676;DHT22;7938;47.666;9.434;2023-11-19T11:42:31;11.60;99.90
15676;DHT22;7938;47.666;9.434;2023-11-19T11:45:00;11.60;99.90
15676;DHT22;7938;47.666;9.434;2023-11-19T11:50:30;11.90;99.90
15676;DHT22;7938;47.666;9.434;2023-11-19T11:53:17;12.10;99.90
15676;DHT22;7938;47.666;9.434;2023-11-19T11:55:57;12.10;99.90
15676;DHT22;7938;47.666;9.434;2023-11-19T11:58:27;12.10;99.90
15676;DHT22;7938;47.666;9.434;2023-11-19T12:00:57;12.10;99.90
15676;DHT22;7938;47.666;9.434;2023-11-19T12:03:27;12.10;99.90
15676;DHT22;7938;47.666;9.434;2023-11-19T12:05:56;12.10;99.90
15676;DHT22;7938;47.666;9.434;2023-11-19T12:08:28;11.30;99.90
15676;DHT22;7938;47.666;9.434;2023-11-19T12:10:56;12.20;99.90
15676;DHT22;7938;47.666;9.434;2023-11-19T12:13:29;12.10;99.90
15676;DHT22;7938;47.666;9.434;2023-11-19T12:16:10;12.20;99.90
15676;DHT22;7938;47.666;9.434;2023-11-19T12:18:39;12.20;99.90
15676;DHT22;7938;47.666;9.434;2023-11-19T12:21:08;12.10;99.90
15676;DHT22;7938;47.666;9.434;2023-11-19T12:23:47;12.20;99.90
15676;DHT22;7938;47.666;9.434;2023-11-19T12:26:37;12.40;99.90
15676;DHT22;7938;47.666;9.434;2023-11-19T12:29:04;12.40;99.90
15676;DHT22;7938;47.666;9.434;2023-11-19T12:31:32;12.30;99.90
15676;DHT22;7938;47.666;9.434;2023-11-19T12:34:06;12.40;99.90
15676;DHT22;7938;47.666;9.434;2023-11-19T12:36:35;12.50;99.90
15676;DHT22;7938;47.666;9.434;2023-11-19T12:39:02;12.60;99.90
15676;DHT22;7938;47.666;9.434;2023-11-19T12:41:29;12.40;99.90
15676;DHT22;7938;47.666;9.434;2023-11-19T12:44:09;12.30;99.90
15676;DHT22;7938;47.666;9.434;2023-11-19T12:46:36;12.20;99.90
15676;DHT22;7938;47.666;9.434;2023-11-19T12:49:03;12.10;99.90
15676;DHT22;7938;47.666;9.434;2023-11-19T12:51:31;12.20;99.90
15676;DHT22;7938;47.666;9.434;2023-11-19T12:54:00;12.10;99.90
15676;DHT22;7938;47.666;9.434;2023-11-19T12:56:27;12.20;99.90
15676;DHT22;7938;47.666;9.434;2023-11-19T12:58:55;12.10;99.90
15676;DHT22;7938;47.666;9.434;2023-11-19T13:01:22;11.90;99.90
15676;DHT22;7938;47.666;9.434;2023-11-19T13:03:49;11.80;99.90
15676;DHT22;7938;47.666;9.434;2023-11-19T13:06:17;11.80;99.90
15676;DHT22;7938;47.666;9.434;2023-11-19T13:08:47;11.70;99.90
15676;DHT22;7938;47.666;9.434;2023-11-19T13:11:30;11.70;99.90
15676;DHT22;7938;47.666;9.434;2023-11-19T13:13:59;11.70;99.90
15676;DHT22;7938;47.666;9.434;2023-11-19T13:16:27;11.60;99.90
15676;DHT22;7938;47.666;9.434;2023-11-19T13:18:54;11.50;99.90
15676;DHT22;7938;47.666;9.434;2023-11-19T13:21:22;11.50;99.90
15676;DHT22;7938;47.666;9.434;2023-11-19T13:23:49;11.40;99.90
15676;DHT22;7938;47.666;9.434;2023-11-19T13:26:17;11.40;99.90
15676;DHT22;7938;47.666;9.434;2023-11-19T13:28:44;11.40;99.90
15676;DHT22;7938;47.666;9.434;2023-11-19T13:31:11;11.70;99.90
15676;DHT22;7938;47.666;9.434;2023-11-19T13:33:38;12.10;99.90
15676;DHT22;7938;47.666;9.434;2023-11-19T13:36:05;12.20;99.90
15676;DHT22;7938;47.666;9.434;2023-11-19T13:38:33;12.40;99.90
15676;DHT22;7938;47.666;9.434;2023-11-19T13:41:00;12.60;99.90
15676;DHT22;7938;47.666;9.434;2023-11-19T13:43:29;12.50;99.90
15676;DHT22;7938;47.666;9.434;2023-11-19T13:45:56;12.40;99.90
15676;DHT22;7938;47.666;9.434;2023-11-19T13:48:23;12.50;99.90
15676;DHT22;7938;47.666;9.434;2023-11-19T13:50:52;12.60;99.90
15676;DHT22;7938;47.666;9.434;2023-11-19T13:53:19;12.60;99.90
15676;DHT22;7938;47.666;9.434;2023-11-19T13:55:46;12.50;99.90
15676;DHT22;7938;47.666;9.434;2023-11-19T13:58:13;12.50;99.90
15676;DHT22;7938;47.666;9.434;2023-11-19T14:00:41;12.40;99.90
15676;DHT22;7938;47.666;9.434;2023-11-19T14:03:09;12.40;99.90
15676;DHT22;7938;47.666;9.434;2023-11-19T14:05:36;12.50;99.90
15676;DHT22;7938;47.666;9.434;2023-11-19T14:08:03;12.40;99.90
15676;DHT22;7938;47.666;9.434;2023-11-19T14:10:37;12.40;99.90
15676;DHT22;7938;47.666;9.434;2023-11-19T14:13:04;12.30;99.90
15676;DHT22;7938;47.666;9.434;2023-11-19T14:15:31;12.50;99.90
15676;DHT22;7938;47.666;9.434;2023-11-19T14:18:00;12.00;99.90
15676;DHT22;7938;47.666;9.434;2023-11-19T14:20:27;12.20;99.90
15676;DHT22;7938;47.666;9.434;2023-11-19T14:22:54;12.30;99.90
15676;DHT22;7938;47.666;9.434;2023-11-19T14:25:20;12.10;99.90
15676;DHT22;7938;47.666;9.434;2023-11-19T14:27:49;12.20;99.90
15676;DHT22;7938;47.666;9.434;2023-11-19T14:30:16;12.20;99.90
15676;DHT22;7938;47.666;9.434;2023-11-19T14:32:43;12.10;99.90
15676;DHT22;7938;47.666;9.434;2023-11-19T14:35:12;12.20;99.90
15676;DHT22;7938;47.666;9.434;2023-11-19T14:37:39;12.20;99.90
15676;DHT22;7938;47.666;9.434;2023-11-19T14:40:07;12.10;99.90
15676;DHT22;7938;47.666;9.434;2023-11-19T14:42:37;12.00;99.90
15676;DHT22;7938;47.666;9.434;2023-11-19T14:45:05;12.10;99.90
15676;DHT22;7938;47.666;9.434;2023-11-19T14:47:32;12.10;99.90
15676;DHT22;7938;47.666;9.434;2023-11-19T14:49:59;12.10;99.90
15676;DHT22;7938;47.666;9.434;2023-11-19T14:52:27;12.20;99.90
15676;DHT22;7938;47.666;9.434;2023-11-19T14:54:54;12.30;99.90
15676;DHT22;7938;47.666;9.434;2023-11-19T14:57:22;12.20;99.90
15676;DHT22;7938;47.666;9.434;2023-11-19T14:59:49;12.20;99.90
15676;DHT22;7938;47.666;9.434;2023-11-19T15:02:15;12.20;99.90
15676;DHT22;7938;47.666;9.434;2023-11-19T15:04:42;12.10;99.90
15676;DHT22;7938;47.666;9.434;2023-11-19T15:07:09;12.10;99.90
15676;DHT22;7938;47.666;9.434;2023-11-19T15:09:38;11.90;99.90
15676;DHT22;7938;47.666;9.434;2023-11-19T15:12:05;11.90;99.90
15676;DHT22;7938;47.666;9.434;2023-11-19T15:14:32;11.70;99.90
15676;DHT22;7938;47.666;9.434;2023-11-19T15:16:59;11.70;99.90
15676;DHT22;7938;47.666;9.434;2023-11-19T15:19:26;11.90;99.90
15676;DHT22;7938;47.666;9.434;2023-11-19T15:21:53;11.60;99.90
15676;DHT22;7938;47.666;9.434;2023-11-19T15:24:21;11.90;99.90
15676;DHT22;7938;47.666;9.434;2023-11-19T15:26:49;11.50;99.90
15676;DHT22;7938;47.666;9.434;2023-11-19T15:29:16;11.80;99.90
15676;DHT22;7938;47.666;9.434;2023-11-19T15:31:43;11.60;99.90
15676;DHT22;7938;47.666;9.434;2023-11-19T15:34:10;11.30;99.90
15676;DHT22;7938;47.666;9.434;2023-11-19T15:36:36;11.10;99.90
15676;DHT22;7938;47.666;9.434;2023-11-19T15:39:03;10.90;99.90
15676;DHT22;7938;47.666;9.434;2023-11-19T15:41:31;10.90;99.90
15676;DHT22;7938;47.666;9.434;2023-11-19T15:43:59;10.80;99.90
15676;DHT22;7938;47.666;9.434;2023-11-19T15:46:29;10.70;99.90
15676;DHT22;7938;47.666;9.434;2023-11-19T15:48:56;10.80;99.90
15676;DHT22;7938;47.666;9.434;2023-11-19T15:51:22;10.90;99.90
15676;DHT22;7938;47.666;9.434;2023-11-19T15:53:49;11.00;99.90
15676;DHT22;7938;47.666;9.434;2023-11-19T15:56:16;11.00;99.90
15676;DHT22;7938;47.666;9.434;2023-11-19T15:58:43;11.10;99.90
15676;DHT22;7938;47.666;9.434;2023-11-19T16:01:11;11.00;99.90
15676;DHT22;7938;47.666;9.434;2023-11-19T16:03:38;11.10;99.90
15676;DHT22;7938;47.666;9.434;2023-11-19T16:06:05;11.00;99.90
15676;DHT22;7938;47.666;9.434;2023-11-19T16:08:32;11.00;99.90
15676;DHT22;7938;47.666;9.434;2023-11-19T16:10:59;11.20;99.90
15676;DHT22;7938;47.666;9.434;2023-11-19T16:13:26;11.10;99.90
15676;DHT22;7938;47.666;9.434;2023-11-19T16:15:53;11.10;99.90
15676;DHT22;7938;47.666;9.434;2023-11-19T16:18:21;11.20;99.90
15676;DHT22;7938;47.666;9.434;2023-11-19T16:20:48;11.20;99.90
15676;DHT22;7938;47.666;9.434;2023-11-19T16:23:15;11.10;99.90
15676;DHT22;7938;47.666;9.434;2023-11-19T16:25:43;11.10;99.90
15676;DHT22;7938;47.666;9.434;2023-11-19T16:28:10;11.40;99.90
15676;DHT22;7938;47.666;9.434;2023-11-19T16:30:37;11.30;99.90
15676;DHT22;7938;47.666;9.434;2023-11-19T16:33:03;11.30;99.90
15676;DHT22;7938;47.666;9.434;2023-11-19T16:35:32;11.30;99.90
15676;DHT22;7938;47.666;9.434;2023-11-19T16:38:00;11.30;99.90
15676;DHT22;7938;47.666;9.434;2023-11-19T16:40:27;11.30;99.90
15676;DHT22;7938;47.666;9.434;2023-11-19T16:42:54;11.40;99.90
15676;DHT22;7938;47.666;9.434;2023-11-19T16:45:21;11.40;99.90
15676;DHT22;7938;47.666;9.434;2023-11-19T16:47:48;11.40;99.90
15676;DHT22;7938;47.666;9.434;2023-11-19T16:50:15;11.40;99.90
15676;DHT22;7938;47.666;9.434;2023-11-19T16:52:44;11.40;99.90
15676;DHT22;7938;47.666;9.434;2023-11-19T16:55:10;11.30;99.90
15676;DHT22;7938;47.666;9.434;2023-11-19T16:57:39;11.40;99.90
15676;DHT22;7938;47.666;9.434;2023-11-19T17:00:07;11.30;99.90
15676;DHT22;7938;47.666;9.434;2023-11-19T17:02:36;11.30;99.90
15676;DHT22;7938;47.666;9.434;2023-11-19T17:05:04;11.30;99.90
15676;DHT22;7938;47.666;9.434;2023-11-19T17:07:32;11.20;99.90
15676;DHT22;7938;47.666;9.434;2023-11-19T17:10:00;10.80;99.90
15676;DHT22;7938;47.666;9.434;2023-11-19T17:12:29;11.00;99.90
15676;DHT22;7938;47.666;9.434;2023-11-19T17:14:55;11.10;99.90
15676;DHT22;7938;47.666;9.434;2023-11-19T17:17:32;11.10;99.90
15676;DHT22;7938;47.666;9.434;2023-11-19T17:20:01;11.10;99.90
15676;DHT22;7938;47.666;9.434;2023-11-19T17:22:31;11.30;99.90
15676;DHT22;7938;47.666;9.434;2023-11-19T17:25:00;11.20;99.90
15676;DHT22;7938;47.666;9.434;2023-11-19T17:27:28;11.30;99.90
15676;DHT22;7938;47.666;9.434;2023-11-19T17:29:55;11.20;99.90
15676;DHT22;7938;47.666;9.434;2023-11-19T17:32:22;11.30;99.90
15676;DHT22;7938;47.666;9.434;2023-11-19T17:34:48;11.30;99.90
15676;DHT22;7938;47.666;9.434;2023-11-19T17:37:16;11.30;99.90
15676;DHT22;7938;47.666;9.434;2023-11-19T17:39:44;11.40;99.90
15676;DHT22;7938;47.666;9.434;2023-11-19T17:42:12;11.30;99.90
15676;DHT22;7938;47.666;9.434;2023-11-19T17:44:39;11.20;99.90
15676;DHT22;7938;47.666;9.434;2023-11-19T17:47:06;11.20;99.90
15676;DHT22;7938;47.666;9.434;2023-11-19T17:49:33;11.20;99.90
15676;DHT22;7938;47.666;9.434;2023-11-19T17:52:00;11.20;99.90
15676;DHT22;7938;47.666;9.434;2023-11-19T17:54:27;11.30;99.90
15676;DHT22;7938;47.666;9.434;2023-11-19T17:56:54;11.10;99.90
15676;DHT22;7938;47.666;9.434;2023-11-19T17:59:23;10.90;99.90
15676;DHT22;7938;47.666;9.434;2023-11-19T18:01:51;10.90;99.90
15676;DHT22;7938;47.666;9.434;2023-11-19T18:04:22;10.80;99.90
15676;DHT22;7938;47.666;9.434;2023-11-19T18:06:50;10.80;99.90
15676;DHT22;7938;47.666;9.434;2023-11-19T18:09:16;10.70;99.90
15676;DHT22;7938;47.666;9.434;2023-11-19T18:11:43;10.70;99.90
15676;DHT22;7938;47.666;9.434;2023-11-19T18:14:11;10.80;99.90
15676;DHT22;7938;47.666;9.434;2023-11-19T18:16:39;10.80;99.90
15676;DHT22;7938;47.666;9.434;2023-11-19T18:19:06;11.00;99.90
15676;DHT22;7938;47.666;9.434;2023-11-19T18:21:34;11.00;99.90
15676;DHT22;7938;47.666;9.434;2023-11-19T18:24:01;11.00;99.90
15676;DHT22;7938;47.666;9.434;2023-11-19T18:26:28;10.80;99.90
15676;DHT22;7938;47.666;9.434;2023-11-19T18:28:55;10.80;99.90
15676;DHT22;7938;47.666;9.434;2023-11-19T18:31:22;10.50;99.90
15676;DHT22;7938;47.666;9.434;2023-11-19T18:33:50;10.70;99.90
15676;DHT22;7938;47.666;9.434;2023-11-19T18:36:17;10.50;99.90
15676;DHT22;7938;47.666;9.434;2023-11-19T18:38:43;10.40;99.90
15676;DHT22;7938;47.666;9.434;2023-11-19T18:41:10;10.30;99.90
15676;DHT22;7938;47.666;9.434;2023-11-19T18:43:39;10.30;99.90
15676;DHT22;7938;47.666;9.434;2023-11-19T18:46:07;10.10;99.90
15676;DHT22;7938;47.666;9.434;2023-11-19T18:48:34;10.10;99.90
15676;DHT22;7938;47.666;9.434;2023-11-19T18:51:03;10.00;99.90
15676;DHT22;7938;47.666;9.434;2023-11-19T18:53:30;9.90;99.90
15676;DHT22;7938;47.666;9.434;2023-11-19T18:55:58;10.10;99.90
15676;DHT22;7938;47.666;9.434;2023-11-19T18:58:25;10.00;99.90
15676;DHT22;7938;47.666;9.434;2023-11-19T19:00:52;10.00;99.90
15676;DHT22;7938;47.666;9.434;2023-11-19T19:03:20;10.10;99.90
15676;DHT22;7938;47.666;9.434;2023-11-19T19:05:48;10.00;99.90
15676;DHT22;7938;47.666;9.434;2023-11-19T19:08:16;10.30;99.90
15676;DHT22;7938;47.666;9.434;2023-11-19T19:10:43;10.20;99.90
15676;DHT22;7938;47.666;9.434;2023-11-19T19:13:10;10.30;99.90
15676;DHT22;7938;47.666;9.434;2023-11-19T19:15:37;10.40;99.90
15676;DHT22;7938;47.666;9.434;2023-11-19T19:18:04;10.70;99.90
15676;DHT22;7938;47.666;9.434;2023-11-19T19:20:32;10.80;99.90
15676;DHT22;7938;47.666;9.434;2023-11-19T19:22:59;10.90;99.90
15676;DHT22;7938;47.666;9.434;2023-11-19T19:25:27;11.30;99.90
15676;DHT22;7938;47.666;9.434;2023-11-19T19:27:55;11.60;99.90
15676;DHT22;7938;47.666;9.434;2023-11-19T19:30:22;11.40;99.90
15676;DHT22;7938;47.666;9.434;2023-11-19T19:32:49;11.60;99.90
15676;DHT22;7938;47.666;9.434;2023-11-19T19:35:17;11.60;99.90
15676;DHT22;7938;47.666;9.434;2023-11-19T19:37:44;11.60;99.90
15676;DHT22;7938;47.666;9.434;2023-11-19T19:40:12;11.30;99.90
15676;DHT22;7938;47.666;9.434;2023-11-19T19:42:40;11.50;99.90
15676;DHT22;7938;47.666;9.434;2023-11-19T19:45:08;11.40;99.90
15676;DHT22;7938;47.666;9.434;2023-11-19T19:47:36;11.20;99.90
15676;DHT22;7938;47.666;9.434;2023-11-19T19:50:04;11.40;99.90
15676;DHT22;7938;47.666;9.434;2023-11-19T19:52:33;11.40;99.90
15676;DHT22;7938;47.666;9.434;2023-11-19T19:55:01;11.50;99.90
15676;DHT22;7938;47.666;9.434;2023-11-19T19:57:28;11.50;99.90
15676;DHT22;7938;47.666;9.434;2023-11-19T19:59:56;11.40;99.90
15676;DHT22;7938;47.666;9.434;2023-11-19T20:02:23;11.40;99.90
15676;DHT22;7938;47.666;9.434;2023-11-19T20:04:50;11.40;99.90
15676;DHT22;7938;47.666;9.434;2023-11-19T20:07:18;11.20;99.90
15676;DHT22;7938;47.666;9.434;2023-11-19T20:09:44;11.30;99.90
15676;DHT22;7938;47.666;9.434;2023-11-19T20:12:11;11.40;99.90
15676;DHT22;7938;47.666;9.434;2023-11-19T20:14:39;11.40;99.90
15676;DHT22;7938;47.666;9.434;2023-11-19T20:17:08;11.50;99.90
15676;DHT22;7938;47.666;9.434;2023-11-19T20:19:37;11.40;99.90
15676;DHT22;7938;47.666;9.434;2023-11-19T20:22:04;11.10;99.90
15676;DHT22;7938;47.666;9.434;2023-11-19T20:24:31;11.60;99.90
15676;DHT22;7938;47.666;9.434;2023-11-19T20:26:57;11.80;99.90
15676;DHT22;7938;47.666;9.434;2023-11-19T20:29:24;11.60;99.90
15676;DHT22;7938;47.666;9.434;2023-11-19T20:31:51;11.70;99.90
15676;DHT22;7938;47.666;9.434;2023-11-19T20:34:19;11.60;99.90
15676;DHT22;7938;47.666;9.434;2023-11-19T20:36:46;11.40;99.90
15676;DHT22;7938;47.666;9.434;2023-11-19T20:39:13;11.20;99.90
15676;DHT22;7938;47.666;9.434;2023-11-19T20:41:40;11.20;99.90
15676;DHT22;7938;47.666;9.434;2023-11-19T20:44:07;11.40;99.90
15676;DHT22;7938;47.666;9.434;2023-11-19T20:46:34;11.40;99.90
15676;DHT22;7938;47.666;9.434;2023-11-19T20:49:01;11.50;99.90
15676;DHT22;7938;47.666;9.434;2023-11-19T20:51:29;11.50;99.90
15676;DHT22;7938;47.666;9.434;2023-11-19T20:53:58;11.50;99.90
15676;DHT22;7938;47.666;9.434;2023-11-19T20:56:25;11.30;99.90
15676;DHT22;7938;47.666;9.434;2023-11-19T20:58:52;11.20;99.90
15676;DHT22;7938;47.666;9.434;2023-11-19T21:01:19;11.20;99.90
15676;DHT22;7938;47.666;9.434;2023-11-19T21:03:46;11.20;99.90
15676;DHT22;7938;47.666;9.434;2023-11-19T21:06:13;11.10;99.90
15676;DHT22;7938;47.666;9.434;2023-11-19T21:08:43;10.90;99.90
15676;DHT22;7938;47.666;9.434;2023-11-19T21:11:10;10.80;99.90
15676;DHT22;7938;47.666;9.434;2023-11-19T21:13:37;10.80;99.90
15676;DHT22;7938;47.666;9.434;2023-11-19T21:16:04;10.80;99.90
15676;DHT22;7938;47.666;9.434;2023-11-19T21:18:34;10.60;99.90